createdAt,value
2022-10-02T00:01:18.548Z,33.10
2022-10-02T00:03:48.038Z,34.00
2022-10-02T00:06:21.510Z,35.23
2022-10-02T00:08:53.165Z,36.23
2022-10-02T00:11:28.093Z,35.10
2022-10-02T00:13:59.958Z,34.33
2022-10-02T00:16:34.642Z,34.57
2022-10-02T00:19:04.307Z,36.37
2022-10-02T00:21:47.644Z,37.23
2022-10-02T00:24:20.129Z,33.33
2022-10-02T00:26:56.461Z,36.10
2022-10-02T00:29:34.866Z,33.33
2022-10-02T00:32:14.349Z,38.13
2022-10-02T00:34:58.498Z,36.37
2022-10-02T00:37:37.660Z,32.77
2022-10-02T00:40:22.398Z,33.43
2022-10-02T00:43:06.093Z,32.60
2022-10-02T00:46:01.358Z,72.97
2022-10-02T00:49:00.805Z,31.70
2022-10-02T00:51:44.753Z,27.27
2022-10-02T00:54:27.161Z,28.57
2022-10-02T00:57:06.823Z,30.97
2022-10-02T01:00:01.458Z,31.70
2022-10-02T01:02:48.896Z,34.37
2022-10-02T01:05:17.728Z,30.37
2022-10-02T01:07:51.314Z,33.57
2022-10-02T01:10:22.688Z,34.60
2022-10-02T01:12:51.344Z,33.07
2022-10-02T01:15:22.718Z,32.37
2022-10-02T01:17:53.530Z,34.77
2022-10-02T01:20:32.977Z,34.40
2022-10-02T01:23:10.434Z,31.97
2022-10-02T01:25:39.961Z,33.77
2022-10-02T01:28:08.589Z,33.27
2022-10-02T01:30:40.245Z,32.67
2022-10-02T01:33:08.879Z,31.27
2022-10-02T01:35:39.955Z,34.03
2022-10-02T01:38:12.201Z,35.67
2022-10-02T01:40:42.809Z,36.67
2022-10-02T01:43:14.146Z,37.57
2022-10-02T01:45:53.035Z,37.33
2022-10-02T01:48:30.799Z,35.03
2022-10-02T01:51:24.268Z,35.80
2022-10-02T01:54:03.290Z,34.40
2022-10-02T01:56:40.253Z,35.87
2022-10-02T01:59:21.606Z,35.57
2022-10-02T02:01:57.740Z,35.07
2022-10-02T02:04:33.971Z,33.10
2022-10-02T02:07:08.225Z,35.73
2022-10-02T02:09:41.638Z,34.77
2022-10-02T02:12:16.335Z,33.93
2022-10-02T02:14:52.592Z,38.50
2022-10-02T02:17:27.401Z,36.33
2022-10-02T02:20:02.633Z,37.63
2022-10-02T02:22:34.557Z,36.27
2022-10-02T02:25:08.053Z,38.77
2022-10-02T02:27:42.735Z,39.27
2022-10-02T02:30:14.538Z,43.17
2022-10-02T02:32:47.067Z,40.47
2022-10-02T02:35:24.379Z,44.20
2022-10-02T02:37:57.340Z,38.97
2022-10-02T02:40:29.955Z,39.83
2022-10-02T02:43:04.144Z,42.00
2022-10-02T02:45:36.618Z,41.07
2022-10-02T02:48:09.476Z,42.43
2022-10-02T02:50:43.432Z,41.60
2022-10-02T02:53:14.961Z,35.07
2022-10-02T02:55:47.589Z,29.70
2022-10-02T02:58:20.006Z,21.43
2022-10-02T03:00:48.372Z,20.33
2022-10-02T03:03:16.842Z,19.97
2022-10-02T03:05:48.499Z,16.23
2022-10-02T03:08:23.669Z,16.50
2022-10-02T03:11:05.487Z,14.50
2022-10-02T03:13:49.726Z,14.87
2022-10-02T03:16:32.621Z,13.77
2022-10-02T03:19:17.978Z,15.57
2022-10-02T03:21:57.623Z,13.97
2022-10-02T03:24:30.948Z,14.77
2022-10-02T03:27:06.883Z,13.23
2022-10-02T03:29:42.635Z,14.30
2022-10-02T03:32:15.175Z,13.97
2022-10-02T03:34:43.796Z,13.03
2022-10-02T03:37:12.767Z,12.00
2022-10-02T03:39:42.144Z,12.27
2022-10-02T03:42:13.007Z,12.53
2022-10-02T03:44:44.178Z,12.50
2022-10-02T03:47:12.257Z,12.07
2022-10-02T03:49:41.135Z,12.07
2022-10-02T03:52:14.789Z,13.50
2022-10-02T03:54:43.015Z,14.03
2022-10-02T03:57:16.301Z,14.50
2022-10-02T03:59:51.565Z,14.23
2022-10-02T04:02:28.346Z,14.07
2022-10-02T04:05:02.021Z,16.13
2022-10-02T04:07:37.792Z,16.60
2022-10-02T04:10:23.762Z,15.33
2022-10-02T04:12:57.010Z,15.00
2022-10-02T04:15:32.242Z,16.37
2022-10-02T04:18:04.510Z,16.30
2022-10-02T04:20:42.000Z,15.83
2022-10-02T04:23:16.877Z,17.33
2022-10-02T04:25:48.747Z,16.83
2022-10-02T04:28:20.921Z,18.00
2022-10-02T04:30:53.996Z,18.70
2022-10-02T04:33:24.349Z,17.90
2022-10-02T04:36:05.516Z,16.83
2022-10-02T04:38:55.284Z,19.43
2022-10-02T04:41:40.945Z,19.00
2022-10-02T04:44:18.049Z,18.43
2022-10-02T04:47:06.874Z,19.60
2022-10-02T04:50:02.038Z,19.03
2022-10-02T04:52:46.821Z,19.93
2022-10-02T04:55:41.783Z,21.77
2022-10-02T04:58:25.071Z,21.73
2022-10-02T05:01:02.560Z,23.03
2022-10-02T05:03:49.534Z,22.07
2022-10-02T05:06:33.831Z,23.83
2022-10-02T05:09:11.912Z,26.43
2022-10-02T05:12:10.399Z,23.33
2022-10-02T05:14:55.369Z,24.07
2022-10-02T05:17:40.926Z,22.87
2022-10-02T05:20:24.642Z,20.00
2022-10-02T05:23:13.578Z,20.93
2022-10-02T05:26:11.952Z,20.37
2022-10-02T05:29:01.154Z,19.57
2022-10-02T05:31:40.338Z,20.10
2022-10-02T05:34:36.566Z,18.63
2022-10-02T05:37:22.604Z,16.67
2022-10-02T05:39:58.539Z,16.63
2022-10-02T05:42:32.386Z,16.80
2022-10-02T05:45:06.106Z,15.43
2022-10-02T05:47:40.252Z,15.00
2022-10-02T05:50:17.804Z,6.23
2022-10-02T05:52:55.448Z,4.60
2022-10-02T05:55:30.181Z,4.67
2022-10-02T05:58:06.449Z,5.07
2022-10-02T06:00:40.285Z,5.77
2022-10-02T06:03:17.744Z,5.63
2022-10-02T06:05:55.279Z,4.47
2022-10-02T06:08:31.780Z,5.90
2022-10-02T06:11:06.350Z,5.67
2022-10-02T06:13:42.137Z,5.67
2022-10-02T06:16:15.562Z,6.17
2022-10-02T06:18:49.239Z,6.40
2022-10-02T06:21:29.581Z,6.20
2022-10-02T06:24:03.474Z,6.40
2022-10-02T06:26:39.793Z,6.67
2022-10-02T06:29:18.078Z,6.93
2022-10-02T06:31:52.530Z,6.90
2022-10-02T06:34:21.072Z,7.43
2022-10-02T06:37:09.458Z,7.30
2022-10-02T06:40:02.959Z,7.80
2022-10-02T06:42:40.886Z,8.50
2022-10-02T06:45:19.960Z,7.97
2022-10-02T06:48:00.096Z,8.57
2022-10-02T06:50:44.096Z,7.70
2022-10-02T06:53:30.898Z,8.43
2022-10-02T06:56:07.505Z,8.73
2022-10-02T06:58:53.142Z,8.07
2022-10-02T07:01:30.660Z,8.57
2022-10-02T07:04:14.010Z,8.73
2022-10-02T07:06:55.977Z,9.60
2022-10-02T07:09:50.627Z,8.50
2022-10-02T07:12:35.478Z,10.00
2022-10-02T07:15:26.279Z,10.10
2022-10-02T07:18:07.125Z,10.00
2022-10-02T07:20:40.934Z,10.80
2022-10-02T07:23:36.634Z,10.27
2022-10-02T07:26:23.457Z,10.20
2022-10-02T07:28:59.317Z,10.70
2022-10-02T07:31:49.821Z,9.77
2022-10-02T07:34:32.614Z,9.40
2022-10-02T07:37:11.913Z,10.00
2022-10-02T07:39:56.734Z,9.70
2022-10-02T07:42:54.515Z,10.50
2022-10-02T07:45:37.727Z,11.47
2022-10-02T07:48:27.422Z,10.90
2022-10-02T07:51:30.547Z,9.53
2022-10-02T07:54:09.597Z,9.33
2022-10-02T07:56:39.030Z,9.30
2022-10-02T07:59:13.065Z,8.37
2022-10-02T08:01:44.596Z,9.37
2022-10-02T08:04:18.794Z,8.87
2022-10-02T08:06:48.379Z,8.90
2022-10-02T08:09:20.164Z,8.07
2022-10-02T08:11:54.402Z,8.10
2022-10-02T08:14:28.865Z,8.20
2022-10-02T08:17:04.064Z,7.57
2022-10-02T08:19:40.183Z,8.07
2022-10-02T08:22:23.381Z,8.73
2022-10-02T08:24:56.756Z,6.30
2022-10-02T08:27:30.092Z,6.33
2022-10-02T08:30:02.362Z,6.27
2022-10-02T08:32:36.276Z,6.03
2022-10-02T08:35:12.611Z,5.63
2022-10-02T08:37:54.487Z,5.77
2022-10-02T08:41:04.291Z,4.70
2022-10-02T08:44:17.312Z,4.20
2022-10-02T08:47:18.251Z,3.53
2022-10-02T08:50:30.586Z,4.10
2022-10-02T08:53:32.017Z,3.53
2022-10-02T08:56:17.804Z,4.17
2022-10-02T08:59:32.057Z,4.27
2022-10-02T09:02:41.937Z,4.30
2022-10-02T09:05:52.587Z,4.37
2022-10-02T09:08:50.645Z,4.83
2022-10-02T09:11:45.163Z,4.03
2022-10-02T09:14:43.871Z,4.20
2022-10-02T09:17:25.112Z,4.30
2022-10-02T09:20:13.264Z,4.20
2022-10-02T09:23:13.577Z,3.33
2022-10-02T09:25:51.078Z,3.63
2022-10-02T09:28:47.772Z,3.47
2022-10-02T09:31:58.892Z,3.20
2022-10-02T09:34:58.395Z,3.23
2022-10-02T09:38:05.765Z,2.90
2022-10-02T09:40:59.049Z,2.43
2022-10-02T09:44:10.108Z,3.10
2022-10-02T09:47:03.895Z,3.20
2022-10-02T09:50:19.846Z,2.30
2022-10-02T09:53:28.051Z,2.07
2022-10-02T09:56:19.309Z,2.03
2022-10-02T09:59:22.943Z,1.60
2022-10-02T10:02:26.400Z,1.53
2022-10-02T10:05:21.786Z,1.80
2022-10-02T10:08:23.113Z,1.50
2022-10-02T10:11:10.627Z,1.43
2022-10-02T10:14:19.780Z,1.70
2022-10-02T10:17:31.956Z,1.47
2022-10-02T10:20:44.516Z,1.60
2022-10-02T10:23:35.891Z,1.30
2022-10-02T10:26:49.863Z,1.60
2022-10-02T10:29:47.446Z,1.60
2022-10-02T10:32:53.142Z,1.80
2022-10-02T10:35:52.567Z,1.93
2022-10-02T10:38:49.684Z,2.10
2022-10-02T10:41:54.134Z,2.00
2022-10-02T10:44:48.095Z,1.53
2022-10-02T10:47:46.537Z,1.53
2022-10-02T10:50:38.882Z,1.83
2022-10-02T10:53:42.399Z,1.63
2022-10-02T10:56:37.649Z,2.13
2022-10-02T10:59:35.309Z,2.07
2022-10-02T11:02:35.976Z,2.40
2022-10-02T11:05:22.848Z,4.37
2022-10-02T11:08:11.104Z,7.63
2022-10-02T11:10:51.541Z,6.70
2022-10-02T11:13:36.624Z,6.73
2022-10-02T11:16:35.755Z,6.80
2022-10-02T11:19:29.832Z,7.80
2022-10-02T11:22:37.822Z,7.60
2022-10-02T11:25:29.634Z,7.57
2022-10-02T11:28:26.476Z,8.43
2022-10-02T11:31:10.232Z,4.83
2022-10-02T11:34:13.709Z,3.87
2022-10-02T11:37:01.430Z,4.67
2022-10-02T11:39:44.360Z,4.23
2022-10-02T11:42:48.610Z,3.90
2022-10-02T11:45:48.956Z,3.60
2022-10-02T11:48:58.045Z,3.87
2022-10-02T11:51:47.767Z,9.47
2022-10-02T11:54:47.049Z,9.53
2022-10-02T11:57:34.502Z,5.20
2022-10-02T12:00:16.650Z,3.90
2022-10-02T12:02:54.805Z,3.33
2022-10-02T12:05:45.073Z,2.97
2022-10-02T12:08:20.104Z,3.77
2022-10-02T12:10:57.290Z,2.90
2022-10-02T12:13:51.980Z,3.17
2022-10-02T12:16:30.436Z,3.20
2022-10-02T12:19:17.623Z,3.00
2022-10-02T12:22:21.029Z,2.53
2022-10-02T12:25:17.766Z,3.30
2022-10-02T12:27:58.383Z,3.53
2022-10-02T12:30:36.246Z,3.80
2022-10-02T12:33:30.510Z,3.73
2022-10-02T12:36:13.490Z,3.27
2022-10-02T12:38:54.262Z,3.13
2022-10-02T12:41:40.315Z,4.00
2022-10-02T12:44:43.161Z,3.43
2022-10-02T12:47:41.387Z,5.80
2022-10-02T12:50:24.850Z,7.07
2022-10-02T12:53:41.976Z,8.03
2022-10-02T12:56:36.358Z,8.20
2022-10-02T12:59:13.586Z,7.40
2022-10-02T13:02:56.231Z,6.27
2022-10-02T13:05:51.409Z,5.07
2022-10-02T13:08:50.683Z,5.90
2022-10-02T13:11:30.307Z,5.47
2022-10-02T13:14:17.987Z,5.00
2022-10-02T13:17:10.237Z,4.67
2022-10-02T13:19:49.872Z,4.97
2022-10-02T13:22:24.001Z,5.00
2022-10-02T13:25:19.172Z,5.27
2022-10-02T13:28:00.961Z,5.50
2022-10-02T13:30:36.035Z,6.07
2022-10-02T13:33:16.787Z,5.67
2022-10-02T13:36:13.133Z,6.03
2022-10-02T13:39:17.981Z,6.00
2022-10-02T13:42:06.939Z,6.40
2022-10-02T13:44:49.841Z,6.13
2022-10-02T13:47:38.430Z,5.93
2022-10-02T13:50:29.594Z,6.30
2022-10-02T13:53:11.900Z,5.83
2022-10-02T13:55:46.421Z,6.23
2022-10-02T13:58:36.408Z,6.27
2022-10-02T14:01:17.641Z,6.10
2022-10-02T14:04:00.487Z,5.73
2022-10-02T14:06:34.343Z,6.13
2022-10-02T14:09:12.443Z,6.87
2022-10-02T14:11:57.182Z,6.67
2022-10-02T14:14:40.296Z,7.00
2022-10-02T14:17:23.862Z,7.17
2022-10-02T14:20:04.655Z,7.73
2022-10-02T14:22:58.610Z,7.57
2022-10-02T14:25:38.613Z,8.87
2022-10-02T14:28:26.038Z,9.40
2022-10-02T14:31:16.607Z,10.07
2022-10-02T14:34:18.957Z,10.33
2022-10-02T14:36:57.039Z,10.17
2022-10-02T14:39:35.705Z,9.80
2022-10-02T14:42:25.148Z,10.63
2022-10-02T14:45:28.674Z,10.73
2022-10-02T14:48:12.639Z,11.03
2022-10-02T14:50:58.225Z,11.10
2022-10-02T14:53:56.138Z,11.03
2022-10-02T14:56:51.098Z,11.10
2022-10-02T14:59:43.062Z,11.00
2022-10-02T15:02:35.725Z,10.60
2022-10-02T15:05:17.501Z,10.47
2022-10-02T15:07:47.213Z,11.23
2022-10-02T15:10:20.171Z,12.57
2022-10-02T15:12:55.644Z,12.83
2022-10-02T15:15:33.948Z,13.03
2022-10-02T15:18:21.102Z,13.90
2022-10-02T15:20:59.587Z,12.70
2022-10-02T15:23:44.568Z,14.13
2022-10-02T15:26:41.314Z,13.73
2022-10-02T15:29:21.882Z,12.87
2022-10-02T15:32:29.102Z,13.33
2022-10-02T15:35:10.245Z,14.17
2022-10-02T15:37:47.603Z,12.57
2022-10-02T15:40:29.985Z,13.90
2022-10-02T15:43:06.121Z,12.90
2022-10-02T15:45:57.702Z,13.73
2022-10-02T15:48:49.021Z,14.40
2022-10-02T15:51:51.648Z,13.97
2022-10-02T15:54:38.329Z,14.30
2022-10-02T15:57:27.558Z,15.00
2022-10-02T16:00:10.111Z,14.70
2022-10-02T16:03:05.910Z,16.10
2022-10-02T16:05:47.982Z,16.90
2022-10-02T16:08:50.044Z,17.33
2022-10-02T16:11:51.005Z,16.03
2022-10-02T16:14:31.330Z,15.70
2022-10-02T16:17:48.030Z,16.90
2022-10-02T16:20:49.409Z,15.83
2022-10-02T16:23:35.693Z,17.03
2022-10-02T16:26:13.978Z,18.77
2022-10-02T16:28:59.412Z,18.77
2022-10-02T16:31:43.554Z,18.40
2022-10-02T16:34:28.158Z,19.17
2022-10-02T16:37:03.666Z,20.93
2022-10-02T16:39:44.742Z,20.20
2022-10-02T16:42:22.064Z,22.47
2022-10-02T16:45:32.699Z,24.67
2022-10-02T16:48:12.177Z,25.73
2022-10-02T16:50:54.355Z,25.00
2022-10-02T16:53:27.953Z,25.13
2022-10-02T16:56:07.464Z,26.93
2022-10-02T16:58:46.360Z,26.77
2022-10-02T17:01:25.782Z,27.53
2022-10-02T17:04:33.075Z,27.97
2022-10-02T17:07:07.343Z,27.43
2022-10-02T17:09:45.201Z,28.97
2022-10-02T17:12:21.227Z,26.03
2022-10-02T17:14:58.150Z,27.70
2022-10-02T17:17:33.564Z,26.67
2022-10-02T17:20:17.793Z,28.13
2022-10-02T17:22:56.321Z,26.73
2022-10-02T17:25:31.240Z,27.40
2022-10-02T17:28:06.089Z,27.10
2022-10-02T17:30:55.999Z,28.17
2022-10-02T17:33:27.233Z,27.43
2022-10-02T17:36:06.434Z,29.93
2022-10-02T17:38:52.115Z,28.67
2022-10-02T17:41:35.088Z,28.50
2022-10-02T17:44:16.453Z,29.20
2022-10-02T17:47:07.328Z,29.43
2022-10-02T17:49:44.413Z,31.67
2022-10-02T17:52:42.742Z,32.47
2022-10-02T17:55:48.994Z,32.87
2022-10-02T17:58:27.381Z,28.93
2022-10-02T18:01:11.253Z,27.93
2022-10-02T18:03:50.968Z,30.90
2022-10-02T18:06:28.499Z,32.70
2022-10-02T18:09:27.228Z,33.37
2022-10-02T18:12:19.814Z,34.90
2022-10-02T18:15:18.684Z,33.77
2022-10-02T18:18:01.624Z,37.63
2022-10-02T18:20:35.864Z,36.63
2022-10-02T18:23:31.629Z,37.27
2022-10-02T18:26:12.622Z,37.50
2022-10-02T18:29:07.120Z,40.60
2022-10-02T18:31:56.190Z,40.57
2022-10-02T18:34:43.877Z,40.13
2022-10-02T18:37:34.654Z,40.37
2022-10-02T18:40:17.517Z,45.20
2022-10-02T18:43:02.331Z,45.13
2022-10-02T18:45:44.894Z,43.43
2022-10-02T18:48:35.490Z,40.70
2022-10-02T18:51:15.549Z,42.03
2022-10-02T18:53:58.497Z,41.10
2022-10-02T18:56:51.497Z,43.77
2022-10-02T18:59:32.198Z,40.67
2022-10-02T19:02:16.753Z,41.50
2022-10-02T19:05:04.281Z,42.47
2022-10-02T19:07:42.130Z,44.37
2022-10-02T19:10:26.411Z,41.00
2022-10-02T19:12:57.807Z,40.43
2022-10-02T19:15:32.014Z,41.87
2022-10-02T19:18:02.458Z,47.00
2022-10-02T19:20:42.490Z,56.03
2022-10-02T19:23:21.135Z,63.13
2022-10-02T19:25:50.633Z,60.10
2022-10-02T19:28:23.083Z,54.13
2022-10-02T19:30:55.039Z,56.30
2022-10-02T19:33:33.153Z,52.17
2022-10-02T19:36:05.773Z,49.23
2022-10-02T19:38:36.127Z,47.33
2022-10-02T19:41:10.032Z,44.27
2022-10-02T19:43:49.086Z,44.90
2022-10-02T19:46:20.151Z,46.07
2022-10-02T19:48:57.008Z,42.60
2022-10-02T19:51:26.310Z,41.63
2022-10-02T19:53:59.258Z,41.00
2022-10-02T19:56:33.193Z,38.57
2022-10-02T19:59:05.917Z,37.80
2022-10-02T20:01:43.797Z,37.67
2022-10-02T20:04:18.337Z,40.03
2022-10-02T20:06:49.879Z,39.97
2022-10-02T20:09:24.280Z,41.43
2022-10-02T20:11:56.036Z,41.10
2022-10-02T20:14:30.974Z,39.97
2022-10-02T20:17:12.737Z,39.00
2022-10-02T20:19:45.375Z,41.03
2022-10-02T20:22:25.009Z,43.30
2022-10-02T20:24:58.361Z,45.53
2022-10-02T20:27:36.620Z,43.70
2022-10-02T20:30:12.638Z,41.23
2022-10-02T20:32:48.058Z,40.43
2022-10-02T20:35:20.496Z,40.63
2022-10-02T20:37:52.129Z,38.40
2022-10-02T20:40:25.587Z,40.73
2022-10-02T20:43:00.970Z,44.10
2022-10-02T20:45:37.749Z,43.20
2022-10-02T20:49:07.447Z,41.43
2022-10-02T20:52:05.227Z,39.30
2022-10-02T20:54:44.576Z,36.20
2022-10-02T20:57:59.612Z,53.80
2022-10-02T21:00:28.962Z,36.30
2022-10-02T21:03:27.099Z,38.20
2022-10-02T21:06:33.196Z,39.33
2022-10-02T21:09:23.847Z,36.87
2022-10-02T21:12:10.746Z,34.40
2022-10-02T21:14:54.830Z,36.13
2022-10-02T21:17:52.287Z,38.87
2022-10-02T21:20:51.350Z,39.20
2022-10-02T21:23:59.692Z,37.07
2022-10-02T21:26:57.836Z,36.43
2022-10-02T21:29:40.654Z,40.10
2022-10-02T21:32:34.771Z,41.80
2022-10-02T21:35:13.937Z,46.17
2022-10-02T21:38:06.573Z,45.33
2022-10-02T21:41:06.651Z,46.67
2022-10-02T21:44:04.044Z,47.30
2022-10-02T21:47:00.277Z,47.33
2022-10-02T21:50:16.600Z,48.37
2022-10-02T21:53:31.041Z,45.37
2022-10-02T21:56:52.541Z,48.50
2022-10-02T21:59:38.972Z,47.77
2022-10-02T22:02:31.406Z,45.23
2022-10-02T22:05:25.378Z,43.07
2022-10-02T22:08:03.831Z,39.43
2022-10-02T22:10:39.038Z,40.53
2022-10-02T22:13:21.066Z,39.70
2022-10-02T22:16:04.258Z,36.67
2022-10-02T22:18:45.766Z,40.53
2022-10-02T22:21:37.030Z,43.40
2022-10-02T22:24:33.372Z,41.70
2022-10-02T22:27:28.787Z,40.27
2022-10-02T22:29:58.274Z,40.43
2022-10-02T22:33:11.911Z,44.87
2022-10-02T22:36:15.882Z,42.13
2022-10-02T22:38:49.316Z,41.60
2022-10-02T22:41:27.694Z,39.83
2022-10-02T22:43:59.996Z,41.93
2022-10-02T22:46:40.930Z,44.43
2022-10-02T22:49:19.548Z,37.70
2022-10-02T22:51:59.902Z,39.27
2022-10-02T22:54:36.676Z,37.33
2022-10-02T22:57:15.145Z,36.40
2022-10-02T22:59:47.646Z,41.17
2022-10-02T23:02:21.882Z,37.07
2022-10-02T23:04:57.307Z,39.13
2022-10-02T23:07:29.835Z,42.20
2022-10-02T23:10:03.476Z,43.73
2022-10-02T23:12:39.624Z,44.20
2022-10-02T23:15:35.744Z,45.53
2022-10-02T23:18:07.472Z,42.03
2022-10-02T23:20:40.303Z,44.80
2022-10-02T23:23:17.086Z,43.93
2022-10-02T23:25:50.218Z,41.53
2022-10-02T23:28:24.103Z,52.57
2022-10-02T23:31:06.260Z,35.90
2022-10-02T23:33:47.889Z,33.37
2022-10-02T23:36:25.432Z,32.17
2022-10-02T23:39:00.207Z,33.13
2022-10-02T23:41:46.650Z,37.37
2022-10-02T23:44:37.107Z,32.90
2022-10-02T23:47:22.132Z,32.17
2022-10-02T23:49:53.894Z,30.67
2022-10-02T23:52:43.580Z,30.40
2022-10-02T23:55:32.586Z,28.93
2022-10-02T23:58:38.925Z,31.73
